Time;durP1;ratioP1;P1;durP2;ratioP2;P2;SDS_P1;SDS_P2;PMS_P1;PMS_P2;Temp;Humidity;BMP_temperature;BMP_pressure;BME280_temperature;BME280_humidity;BME280_pressure;Samples;Min_cycle;Max_cycle;Signal;HPM_P1;HPM_P2
2024/02/17 08:20:17;;;;;;;5.27;1.43;;;10.80;99.90;;;;;;2558975;23;20232;-73
2024/02/17 08:22:44;;;;;;;5.10;0.80;;;11.00;99.90;;;;;;4936787;29;20209;-73
2024/02/17 08:25:11;;;;;;;4.37;1.03;;;10.90;99.90;;;;;;4936877;29;20263;-74
2024/02/17 08:27:39;;;;;;;3.73;0.57;;;10.90;99.90;;;;;;4918248;29;20230;-73
2024/02/17 08:30:07;;;;;;;3.57;1.17;;;10.90;99.90;;;;;;4917835;29;20209;-74
2024/02/17 08:32:35;;;;;;;3.63;0.83;;;10.90;99.90;;;;;;4918087;29;20296;-73
2024/02/17 08:35:02;;;;;;;2.47;0.80;;;10.70;99.90;;;;;;4917643;29;20609;-73
2024/02/17 08:37:30;;;;;;;2.53;0.70;;;10.70;99.90;;;;;;4917499;29;20244;-73
2024/02/17 08:39:57;;;;;;;3.77;1.00;;;10.60;99.90;;;;;;4918073;29;20261;-74
2024/02/17 08:42:24;;;;;;;4.17;0.87;;;10.80;99.90;;;;;;4917872;29;20221;-74
2024/02/17 08:44:53;;;;;;;7.10;1.00;;;10.80;99.90;;;;;;4917747;29;20205;-73
2024/02/17 08:47:21;;;;;;;4.50;0.93;;;11.00;99.90;;;;;;4917385;29;20249;-73
2024/02/17 08:49:48;;;;;;;4.33;0.80;;;11.10;99.90;;;;;;4917445;29;20671;-73
2024/02/17 08:52:15;;;;;;;7.10;0.90;;;11.00;99.90;;;;;;4916697;29;20272;-73
2024/02/17 08:54:44;;;;;;;3.73;0.87;;;11.00;99.90;;;;;;4918654;29;20216;-74
2024/02/17 08:57:11;;;;;;;3.67;0.80;;;11.10;99.90;;;;;;4929547;29;20604;-74
2024/02/17 08:59:38;;;;;;;2.87;0.93;;;11.20;99.90;;;;;;4928237;29;20592;-73
2024/02/17 09:02:05;;;;;;;3.33;0.73;;;11.20;99.90;;;;;;4922858;29;20221;-74
2024/02/17 09:04:32;;;;;;;5.83;1.10;;;11.20;99.90;;;;;;4916708;29;20240;-73
2024/02/17 09:06:59;;;;;;;3.57;1.00;;;11.20;99.90;;;;;;4916528;29;20261;-73
2024/02/17 09:09:27;;;;;;;2.87;0.70;;;11.20;99.90;;;;;;4916421;29;20214;-74
2024/02/17 09:11:56;;;;;;;4.40;1.20;;;11.20;99.90;;;;;;4916560;29;20296;-74
2024/02/17 09:14:23;;;;;;;3.70;1.00;;;11.30;99.90;;;;;;4916465;29;20256;-73
2024/02/17 09:16:51;;;;;;;8.43;1.20;;;11.20;99.90;;;;;;4916764;29;20418;-73
2024/02/17 09:19:18;;;;;;;3.27;0.97;;;11.30;99.90;;;;;;4916685;29;20671;-74
2024/02/17 09:21:45;;;;;;;1.60;0.87;;;11.50;99.90;;;;;;4916836;29;20610;-74
2024/02/17 09:24:18;;;;;;;3.33;1.10;;;11.60;99.90;;;;;;4917911;29;20220;-74
2024/02/17 09:26:45;;;;;;;5.30;0.83;;;11.60;99.90;;;;;;4920292;29;20656;-74
2024/02/17 09:29:14;;;;;;;7.37;1.47;;;11.80;99.90;;;;;;4920396;29;20681;-74
2024/02/17 09:31:41;;;;;;;1.80;0.80;;;12.00;99.90;;;;;;4920308;29;20672;-74
2024/02/17 09:34:08;;;;;;;5.03;1.10;;;12.20;99.90;;;;;;4920405;29;20225;-75
2024/02/17 09:36:35;;;;;;;5.97;0.93;;;12.00;99.90;;;;;;4920069;29;20257;-74
2024/02/17 09:39:03;;;;;;;5.77;1.03;;;12.10;99.90;;;;;;4919866;29;20324;-74
2024/02/17 09:41:30;;;;;;;6.07;1.17;;;12.20;99.90;;;;;;4920162;29;20262;-74
2024/02/17 09:43:58;;;;;;;8.73;1.20;;;12.30;99.90;;;;;;4920221;29;20244;-74
2024/02/17 09:46:27;;;;;;;3.93;0.90;;;12.40;99.90;;;;;;4920176;29;20317;-74
2024/02/17 09:48:58;;;;;;;3.57;0.90;;;12.60;99.90;;;;;;4919391;29;20213;-75
2024/02/17 09:51:25;;;;;;;3.73;1.23;;;12.70;99.90;;;;;;4915608;29;20201;-75
2024/02/17 09:53:54;;;;;;;3.73;0.90;;;13.00;99.90;;;;;;4912272;29;20209;-76
2024/02/17 09:56:22;;;;;;;5.40;1.23;;;13.10;99.90;;;;;;4919239;29;20266;-75
2024/02/17 09:58:49;;;;;;;2.90;0.70;;;13.20;99.90;;;;;;4918949;29;20233;-76
2024/02/17 10:01:16;;;;;;;5.13;1.20;;;13.00;99.90;;;;;;4919266;29;20300;-76
2024/02/17 10:03:45;;;;;;;2.97;1.00;;;13.10;99.90;;;;;;4919461;29;20236;-76
2024/02/17 10:06:13;;;;;;;2.33;0.80;;;13.20;99.90;;;;;;4919298;29;20275;-76
2024/02/17 10:08:42;;;;;;;6.73;1.47;;;13.20;99.90;;;;;;4914568;29;20237;-77
2024/02/17 10:11:10;;;;;;;4.57;1.30;;;13.20;99.90;;;;;;4916991;29;20300;-73
2024/02/17 10:13:38;;;;;;;4.90;1.00;;;13.30;99.90;;;;;;4918163;29;20237;-75
2024/02/17 10:16:08;;;;;;;3.53;1.10;;;13.10;99.90;;;;;;4918492;29;20225;-74
2024/02/17 10:18:39;;;;;;;1.87;0.80;;;13.00;99.90;;;;;;4915325;29;20279;-73
2024/02/17 10:21:08;;;;;;;3.47;1.17;;;13.10;99.90;;;;;;4916000;29;20221;-75
2024/02/17 10:23:36;;;;;;;3.73;1.30;;;13.20;99.90;;;;;;4917870;29;20214;-76
2024/02/17 10:26:03;;;;;;;4.17;1.77;;;13.60;99.90;;;;;;4914754;29;20233;-74
2024/02/17 10:28:31;;;;;;;7.13;1.40;;;13.80;99.90;;;;;;4915056;29;20225;-73
2024/02/17 10:31:00;;;;;;;6.97;1.27;;;13.80;99.90;;;;;;4917608;29;20217;-75
2024/02/17 10:33:30;;;;;;;3.57;1.00;;;13.60;99.90;;;;;;4917951;29;20232;-79
2024/02/17 10:35:59;;;;;;;3.20;1.00;;;13.80;99.90;;;;;;4916390;29;20225;-75
2024/02/17 10:38:29;;;;;;;5.23;0.90;;;13.70;99.90;;;;;;4916347;29;20244;-75
2024/02/17 10:40:56;;;;;;;4.83;0.93;;;13.80;99.90;;;;;;4916536;29;20337;-73
2024/02/17 10:43:23;;;;;;;3.47;1.00;;;14.00;99.90;;;;;;4917576;29;20248;-72
2024/02/17 10:45:56;;;;;;;5.23;1.27;;;14.10;99.90;;;;;;4916632;29;20257;-73
2024/02/17 10:48:26;;;;;;;4.93;0.90;;;14.20;99.90;;;;;;4916706;29;20206;-73
2024/02/17 10:50:54;;;;;;;3.63;0.90;;;14.40;99.90;;;;;;4916474;29;20233;-73
2024/02/17 10:53:32;;;;;;;3.57;1.10;;;14.50;99.90;;;;;;4917248;29;20209;-73
2024/02/17 10:56:05;;;;;;;3.90;1.13;;;14.50;99.90;;;;;;4917472;29;20238;-74
2024/02/17 10:58:37;;;;;;;4.00;1.00;;;14.40;99.90;;;;;;4916752;29;20257;-73
2024/02/17 11:01:06;;;;;;;4.23;1.37;;;14.50;99.90;;;;;;4917007;29;20298;-77
2024/02/17 11:03:36;;;;;;;2.97;0.80;;;14.40;99.90;;;;;;4916887;29;20317;-77
2024/02/17 11:06:06;;;;;;;3.97;1.03;;;14.50;99.90;;;;;;4917404;29;20234;-73
2024/02/17 11:08:35;;;;;;;2.83;0.90;;;14.40;99.90;;;;;;4917014;29;20300;-80
2024/02/17 11:11:22;;;;;;;2.43;1.07;;;14.50;99.90;;;;;;4916619;29;20213;-79
2024/02/17 11:13:50;;;;;;;2.60;1.00;;;14.60;99.90;;;;;;4916865;29;20205;-81
2024/02/17 11:16:19;;;;;;;1.83;0.80;;;14.80;99.90;;;;;;4917552;29;20297;-81
2024/02/17 11:18:49;;;;;;;4.33;0.70;;;14.70;99.90;;;;;;4916999;29;20245;-77
2024/02/17 11:21:26;;;;;;;4.37;1.10;;;14.70;99.90;;;;;;4916900;29;20229;-76
2024/02/17 11:23:57;;;;;;;2.10;0.77;;;14.60;99.90;;;;;;4917012;29;20255;-73
2024/02/17 11:26:26;;;;;;;2.27;0.80;;;14.70;99.90;;;;;;4909582;29;20240;-73
2024/02/17 11:28:53;;;;;;;3.03;1.07;;;14.60;99.90;;;;;;4916198;29;20213;-73
2024/02/17 11:31:28;;;;;;;4.97;1.30;;;14.30;99.90;;;;;;4915292;29;20205;-74
2024/02/17 11:34:00;;;;;;;2.93;0.90;;;14.40;99.90;;;;;;4915199;29;20576;-74
2024/02/17 11:36:31;;;;;;;2.77;0.87;;;14.40;99.90;;;;;;4915714;29;20643;-75
2024/02/17 11:38:59;;;;;;;3.00;0.90;;;14.40;99.90;;;;;;4911082;29;20248;-76
2024/02/17 11:41:28;;;;;;;2.07;0.73;;;14.30;99.90;;;;;;4914567;29;20233;-73
2024/02/17 11:43:56;;;;;;;2.90;1.03;;;14.20;99.90;;;;;;4916038;29;20209;-74
2024/02/17 11:46:23;;;;;;;2.07;1.17;;;14.40;99.90;;;;;;4913207;29;20237;-74
2024/02/17 11:48:51;;;;;;;4.33;0.97;;;14.30;99.90;;;;;;4915627;29;20249;-74
2024/02/17 11:51:21;;;;;;;3.60;1.50;;;14.30;99.90;;;;;;4916019;29;20289;-73
2024/02/17 11:53:51;;;;;;;3.40;0.90;;;14.50;99.90;;;;;;4916088;29;20257;-74
2024/02/17 11:56:19;;;;;;;1.73;0.70;;;14.40;99.90;;;;;;4915841;29;20237;-74
2024/02/17 11:58:47;;;;;;;2.63;0.90;;;14.40;99.90;;;;;;4916407;29;20237;-74
2024/02/17 12:01:15;;;;;;;3.93;0.83;;;14.40;99.90;;;;;;4916567;29;20615;-73
2024/02/17 12:03:44;;;;;;;5.57;1.67;;;14.60;99.90;;;;;;4916297;29;20304;-74
2024/02/17 12:06:12;;;;;;;2.80;0.90;;;14.70;99.90;;;;;;4915458;29;20242;-73
2024/02/17 12:08:40;;;;;;;2.73;1.00;;;14.70;99.90;;;;;;4916235;29;20237;-74
2024/02/17 12:11:10;;;;;;;4.63;1.10;;;14.70;99.90;;;;;;4915894;29;20237;-74
2024/02/17 12:13:37;;;;;;;4.00;1.10;;;14.70;99.90;;;;;;4916538;29;20206;-75
2024/02/17 12:16:07;;;;;;;2.83;1.30;;;14.60;99.90;;;;;;4916140;29;20229;-73
2024/02/17 12:18:34;;;;;;;5.90;1.30;;;14.60;99.90;;;;;;4916057;29;20269;-74
2024/02/17 12:21:05;;;;;;;2.27;1.30;;;14.60;99.90;;;;;;4916044;29;20228;-74
2024/02/17 12:23:34;;;;;;;7.27;1.50;;;14.80;99.90;;;;;;4916171;29;20214;-74
2024/02/17 12:26:02;;;;;;;2.63;1.00;;;14.80;99.90;;;;;;4914765;29;20566;-74
2024/02/17 12:28:30;;;;;;;3.53;0.93;;;14.70;99.90;;;;;;4915033;29;20234;-74
2024/02/17 12:30:58;;;;;;;4.60;1.10;;;14.50;99.90;;;;;;4913547;29;20559;-74
2024/02/17 12:33:28;;;;;;;3.03;1.03;;;14.40;99.90;;;;;;4914931;29;20209;-74
2024/02/17 12:35:55;;;;;;;3.73;1.10;;;14.30;99.90;;;;;;4915131;29;20221;-75
2024/02/17 12:38:24;;;;;;;5.77;1.10;;;14.40;99.90;;;;;;4915077;29;20318;-74
2024/02/17 12:40:52;;;;;;;4.70;0.90;;;14.50;99.90;;;;;;4914280;29;20303;-73
2024/02/17 12:43:20;;;;;;;4.90;1.53;;;14.60;99.90;;;;;;4914199;29;20201;-74
2024/02/17 12:45:47;;;;;;;5.00;1.20;;;14.70;99.90;;;;;;4914961;29;20225;-73
2024/02/17 12:48:15;;;;;;;5.87;1.20;;;14.70;99.90;;;;;;4912198;29;20214;-74
2024/02/17 12:50:44;;;;;;;6.50;1.00;;;14.90;99.90;;;;;;4914862;29;20209;-75
2024/02/17 12:53:15;;;;;;;5.90;1.20;;;15.00;99.90;;;;;;4915274;29;20220;-75
2024/02/17 12:55:43;;;;;;;4.30;1.27;;;15.00;99.90;;;;;;4914598;29;20232;-75
2024/02/17 12:58:11;;;;;;;6.07;1.20;;;15.10;99.90;;;;;;4915445;29;20217;-74
2024/02/17 13:00:38;;;;;;;11.53;1.43;;;15.20;99.90;;;;;;4914946;29;20252;-73
2024/02/17 13:03:07;;;;;;;6.20;1.23;;;15.20;99.90;;;;;;4914681;29;20576;-75
2024/02/17 13:05:34;;;;;;;4.07;1.30;;;15.10;99.90;;;;;;4912438;29;20217;-74
2024/02/17 13:08:02;;;;;;;5.07;1.50;;;14.90;99.90;;;;;;4914943;29;20208;-74
2024/02/17 13:10:31;;;;;;;6.87;1.47;;;14.80;99.90;;;;;;4915287;29;20209;-74
2024/02/17 13:12:58;;;;;;;4.10;1.27;;;14.80;99.90;;;;;;4915873;29;20209;-75
2024/02/17 13:15:25;;;;;;;4.07;1.00;;;14.70;99.90;;;;;;4915356;29;20222;-74
2024/02/17 13:17:52;;;;;;;2.50;0.97;;;14.60;99.90;;;;;;4914886;29;20218;-74
2024/02/17 13:20:19;;;;;;;8.20;1.30;;;14.50;99.90;;;;;;4914487;29;20673;-73
2024/02/17 13:22:47;;;;;;;1.97;1.00;;;14.50;99.90;;;;;;4915646;29;20248;-75
2024/02/17 13:25:15;;;;;;;4.80;1.70;;;14.50;99.90;;;;;;4915136;29;20217;-74
2024/02/17 13:27:42;;;;;;;3.63;1.00;;;14.50;99.90;;;;;;4915743;29;20236;-74
2024/02/17 13:30:12;;;;;;;6.73;1.50;;;14.60;99.90;;;;;;4915548;29;20244;-74
2024/02/17 13:32:42;;;;;;;3.90;1.10;;;14.70;99.90;;;;;;4915380;29;20209;-73
2024/02/17 13:35:10;;;;;;;4.33;1.40;;;14.70;99.90;;;;;;4915694;29;20664;-74
2024/02/17 13:37:37;;;;;;;4.20;1.07;;;14.80;99.90;;;;;;4915861;29;20292;-73
2024/02/17 13:40:06;;;;;;;2.47;1.03;;;14.80;99.90;;;;;;4910896;29;20236;-74
2024/02/17 13:42:35;;;;;;;4.27;0.87;;;14.70;99.90;;;;;;4915095;29;21142;-74
2024/02/17 13:45:02;;;;;;;3.77;1.20;;;14.70;99.90;;;;;;4913896;29;20217;-74
2024/02/17 13:47:34;;;;;;;2.30;1.10;;;14.80;99.90;;;;;;4913516;29;20229;-73
2024/02/17 13:50:01;;;;;;;3.00;1.00;;;14.80;99.90;;;;;;4913604;29;20653;-73
2024/02/17 13:52:28;;;;;;;4.77;1.07;;;14.70;99.90;;;;;;4913706;29;20613;-74
2024/02/17 13:54:55;;;;;;;4.40;1.33;;;14.60;99.90;;;;;;4913353;29;20237;-73
2024/02/17 13:57:22;;;;;;;4.03;1.10;;;14.40;99.90;;;;;;4914297;29;20757;-74
2024/02/17 13:59:51;;;;;;;5.10;1.00;;;14.20;99.90;;;;;;4914296;29;20253;-73
2024/02/17 14:02:18;;;;;;;2.57;0.90;;;14.00;99.90;;;;;;4913206;29;20210;-73
2024/02/17 14:04:45;;;;;;;2.80;0.80;;;14.00;99.90;;;;;;4913641;29;20273;-73
2024/02/17 14:07:12;;;;;;;1.57;0.80;;;14.10;99.90;;;;;;4913823;29;20225;-74
2024/02/17 14:09:41;;;;;;;3.07;0.80;;;14.10;99.90;;;;;;4913989;29;20210;-73
2024/02/17 14:12:09;;;;;;;3.27;0.90;;;14.30;99.90;;;;;;4904735;29;20573;-73
2024/02/17 14:14:36;;;;;;;4.10;0.73;;;14.40;99.90;;;;;;4914418;29;20214;-73
2024/02/17 14:17:04;;;;;;;1.97;0.80;;;14.50;99.90;;;;;;4918665;29;20258;-72
2024/02/17 14:19:33;;;;;;;4.43;1.37;;;14.60;99.90;;;;;;4918207;29;20245;-73
2024/02/17 14:22:00;;;;;;;2.23;0.60;;;14.60;99.90;;;;;;4918280;29;20221;-73
2024/02/17 14:24:29;;;;;;;2.37;0.70;;;14.60;99.90;;;;;;4918832;29;20264;-73
2024/02/17 14:26:59;;;;;;;0.97;0.50;;;14.60;99.90;;;;;;4918749;29;20698;-73
2024/02/17 14:29:26;;;;;;;2.10;0.77;;;14.60;99.90;;;;;;4918998;29;20566;-72
2024/02/17 14:31:53;;;;;;;1.27;0.70;;;14.60;99.90;;;;;;4918645;29;20206;-72
2024/02/17 14:34:22;;;;;;;1.63;0.80;;;14.60;99.90;;;;;;4918366;29;20209;-72
